sensor_id;sensor_type;location;lat;lon;timestamp;noise_LAeq;noise_LA_min;noise_LA_max;noise_LA01;noise_LA95
66399;Laerm;54877;51.504;3.894;2022-10-16T00:00:38;38.39;34.81;47.22;;
66399;Laerm;54877;51.504;3.894;2022-10-16T00:03:04;37.32;34.15;58.92;;
66399;Laerm;54877;51.504;3.894;2022-10-16T00:05:29;37.75;33.87;56.53;;
66399;Laerm;54877;51.504;3.894;2022-10-16T00:07:54;36.84;34.10;41.89;;
66399;Laerm;54877;51.504;3.894;2022-10-16T00:10:20;35.67;33.97;50.94;;
66399;Laerm;54877;51.504;3.894;2022-10-16T00:12:45;36.45;33.94;45.42;;
66399;Laerm;54877;51.504;3.894;2022-10-16T00:15:10;36.06;34.10;40.93;;
66399;Laerm;54877;51.504;3.894;2022-10-16T00:17:36;36.53;34.00;48.62;;
66399;Laerm;54877;51.504;3.894;2022-10-16T00:20:01;35.92;34.20;38.81;;
66399;Laerm;54877;51.504;3.894;2022-10-16T00:22:26;38.40;34.18;63.70;;
66399;Laerm;54877;51.504;3.894;2022-10-16T00:24:51;36.80;34.36;46.18;;
66399;Laerm;54877;51.504;3.894;2022-10-16T00:27:17;58.33;34.58;76.92;;
66399;Laerm;54877;51.504;3.894;2022-10-16T00:29:42;38.90;34.29;58.34;;
66399;Laerm;54877;51.504;3.894;2022-10-16T00:32:07;35.84;34.37;39.94;;
66399;Laerm;54877;51.504;3.894;2022-10-16T00:34:32;35.79;34.30;38.57;;
66399;Laerm;54877;51.504;3.894;2022-10-16T00:36:58;35.89;34.38;44.58;;
66399;Laerm;54877;51.504;3.894;2022-10-16T00:39:23;35.96;34.17;41.44;;
66399;Laerm;54877;51.504;3.894;2022-10-16T00:41:48;35.72;34.11;38.58;;
66399;Laerm;54877;51.504;3.894;2022-10-16T00:46:57;35.51;34.11;37.91;;
66399;Laerm;54877;51.504;3.894;2022-10-16T00:49:22;35.55;34.23;41.96;;
66399;Laerm;54877;51.504;3.894;2022-10-16T00:51:49;35.46;34.16;38.39;;
66399;Laerm;54877;51.504;3.894;2022-10-16T00:54:19;35.45;33.99;43.03;;
66399;Laerm;54877;51.504;3.894;2022-10-16T00:56:46;35.92;34.12;45.93;;
66399;Laerm;54877;51.504;3.894;2022-10-16T00:59:14;35.53;34.14;37.55;;
66399;Laerm;54877;51.504;3.894;2022-10-16T01:01:40;48.35;34.08;71.39;;
66399;Laerm;54877;51.504;3.894;2022-10-16T01:04:05;37.34;33.91;46.94;;
66399;Laerm;54877;51.504;3.894;2022-10-16T01:06:39;53.21;34.02;71.60;;
66399;Laerm;54877;51.504;3.894;2022-10-16T01:11:41;42.71;33.97;64.39;;
66399;Laerm;54877;51.504;3.894;2022-10-16T01:14:21;35.48;33.98;39.58;;
66399;Laerm;54877;51.504;3.894;2022-10-16T01:16:53;35.83;34.24;39.06;;
66399;Laerm;54877;51.504;3.894;2022-10-16T01:19:26;35.80;34.20;40.28;;
66399;Laerm;54877;51.504;3.894;2022-10-16T01:21:56;35.80;34.20;37.75;;
66399;Laerm;54877;51.504;3.894;2022-10-16T01:24:33;40.53;34.59;65.70;;
66399;Laerm;54877;51.504;3.894;2022-10-16T01:32:05;35.62;34.22;41.80;;
66399;Laerm;54877;51.504;3.894;2022-10-16T01:34:33;35.53;34.21;37.63;;
66399;Laerm;54877;51.504;3.894;2022-10-16T01:37:07;39.00;34.29;59.77;;
66399;Laerm;54877;51.504;3.894;2022-10-16T01:39:35;35.64;34.10;39.90;;
66399;Laerm;54877;51.504;3.894;2022-10-16T01:42:10;35.61;34.33;37.24;;
66399;Laerm;54877;51.504;3.894;2022-10-16T01:44:36;36.89;34.46;50.65;;
66399;Laerm;54877;51.504;3.894;2022-10-16T01:47:03;35.70;34.25;38.10;;
66399;Laerm;54877;51.504;3.894;2022-10-16T01:49:33;35.95;34.44;39.01;;
66399;Laerm;54877;51.504;3.894;2022-10-16T01:52:02;36.26;34.47;50.37;;
66399;Laerm;54877;51.504;3.894;2022-10-16T01:54:29;36.69;34.48;43.75;;
66399;Laerm;54877;51.504;3.894;2022-10-16T01:56:56;47.10;34.50;68.67;;
66399;Laerm;54877;51.504;3.894;2022-10-16T01:59:23;36.64;34.60;42.56;;
66399;Laerm;54877;51.504;3.894;2022-10-16T02:01:52;42.81;34.66;67.75;;
66399;Laerm;54877;51.504;3.894;2022-10-16T02:04:22;36.43;34.56;56.99;;
66399;Laerm;54877;51.504;3.894;2022-10-16T02:06:49;36.25;34.49;39.73;;
66399;Laerm;54877;51.504;3.894;2022-10-16T02:09:14;41.16;34.57;65.91;;
66399;Laerm;54877;51.504;3.894;2022-10-16T02:11:41;55.46;34.68;75.02;;
66399;Laerm;54877;51.504;3.894;2022-10-16T02:14:07;39.99;34.62;62.13;;
66399;Laerm;54877;51.504;3.894;2022-10-16T02:16:42;40.65;34.80;61.50;;
66399;Laerm;54877;51.504;3.894;2022-10-16T02:19:08;53.89;35.00;80.41;;
66399;Laerm;54877;51.504;3.894;2022-10-16T02:21:54;36.36;34.57;43.11;;
66399;Laerm;54877;51.504;3.894;2022-10-16T02:26:55;37.09;34.81;46.50;;
66399;Laerm;54877;51.504;3.894;2022-10-16T02:29:23;36.92;34.69;49.64;;
66399;Laerm;54877;51.504;3.894;2022-10-16T02:31:51;37.08;34.45;52.79;;
66399;Laerm;54877;51.504;3.894;2022-10-16T02:34:18;36.34;34.64;40.20;;
66399;Laerm;54877;51.504;3.894;2022-10-16T02:36:46;40.14;34.61;54.44;;
66399;Laerm;54877;51.504;3.894;2022-10-16T02:39:13;38.47;34.51;52.74;;
66399;Laerm;54877;51.504;3.894;2022-10-16T02:41:39;36.62;34.21;56.62;;
66399;Laerm;54877;51.504;3.894;2022-10-16T02:44:04;36.00;33.92;43.95;;
66399;Laerm;54877;51.504;3.894;2022-10-16T02:46:29;37.00;34.54;49.51;;
66399;Laerm;54877;51.504;3.894;2022-10-16T02:48:54;36.13;34.40;43.54;;
66399;Laerm;54877;51.504;3.894;2022-10-16T02:51:20;35.85;34.40;39.74;;
66399;Laerm;54877;51.504;3.894;2022-10-16T02:53:45;35.96;34.22;40.99;;
66399;Laerm;54877;51.504;3.894;2022-10-16T02:56:10;36.35;34.43;44.99;;
66399;Laerm;54877;51.504;3.894;2022-10-16T02:58:35;35.75;33.98;38.93;;
66399;Laerm;54877;51.504;3.894;2022-10-16T03:01:01;36.12;34.18;44.37;;
66399;Laerm;54877;51.504;3.894;2022-10-16T03:03:26;35.68;34.22;40.48;;
66399;Laerm;54877;51.504;3.894;2022-10-16T03:05:51;36.65;34.49;52.87;;
66399;Laerm;54877;51.504;3.894;2022-10-16T03:08:16;36.00;34.42;46.85;;
66399;Laerm;54877;51.504;3.894;2022-10-16T03:10:42;36.73;34.43;45.53;;
66399;Laerm;54877;51.504;3.894;2022-10-16T03:13:07;36.06;34.14;40.75;;
66399;Laerm;54877;51.504;3.894;2022-10-16T03:15:32;36.36;34.39;47.14;;
66399;Laerm;54877;51.504;3.894;2022-10-16T03:17:58;35.79;34.34;45.18;;
66399;Laerm;54877;51.504;3.894;2022-10-16T03:20:23;35.97;34.42;40.13;;
66399;Laerm;54877;51.504;3.894;2022-10-16T03:22:48;36.11;34.60;47.76;;
66399;Laerm;54877;51.504;3.894;2022-10-16T03:25:13;35.93;34.34;39.20;;
66399;Laerm;54877;51.504;3.894;2022-10-16T03:27:39;36.07;34.37;40.91;;
66399;Laerm;54877;51.504;3.894;2022-10-16T03:30:04;35.87;34.63;41.87;;
66399;Laerm;54877;51.504;3.894;2022-10-16T03:32:29;35.87;34.48;40.94;;
66399;Laerm;54877;51.504;3.894;2022-10-16T03:34:54;35.96;34.60;39.15;;
66399;Laerm;54877;51.504;3.894;2022-10-16T03:37:21;35.81;34.29;43.10;;
66399;Laerm;54877;51.504;3.894;2022-10-16T03:39:46;35.98;34.52;38.70;;
66399;Laerm;54877;51.504;3.894;2022-10-16T03:42:11;35.86;34.40;38.71;;
66399;Laerm;54877;51.504;3.894;2022-10-16T03:44:37;35.74;34.36;39.09;;
66399;Laerm;54877;51.504;3.894;2022-10-16T03:47:02;36.28;34.54;49.85;;
66399;Laerm;54877;51.504;3.894;2022-10-16T03:49:27;36.04;34.74;44.15;;
66399;Laerm;54877;51.504;3.894;2022-10-16T03:51:53;35.92;34.58;38.57;;
66399;Laerm;54877;51.504;3.894;2022-10-16T03:54:18;36.00;34.15;39.62;;
66399;Laerm;54877;51.504;3.894;2022-10-16T03:56:43;39.39;34.55;57.39;;
66399;Laerm;54877;51.504;3.894;2022-10-16T03:59:08;39.47;34.80;58.21;;
66399;Laerm;54877;51.504;3.894;2022-10-16T04:01:34;36.64;34.85;45.08;;
66399;Laerm;54877;51.504;3.894;2022-10-16T04:03:59;36.24;34.59;38.81;;
66399;Laerm;54877;51.504;3.894;2022-10-16T04:06:24;36.14;34.64;39.56;;
66399;Laerm;54877;51.504;3.894;2022-10-16T04:08:49;36.74;34.71;45.18;;
66399;Laerm;54877;51.504;3.894;2022-10-16T04:11:14;36.52;34.65;40.86;;
66399;Laerm;54877;51.504;3.894;2022-10-16T04:13:39;36.34;34.87;39.62;;
66399;Laerm;54877;51.504;3.894;2022-10-16T04:16:05;37.09;34.75;46.91;;
66399;Laerm;54877;51.504;3.894;2022-10-16T04:18:30;36.95;34.93;51.86;;
66399;Laerm;54877;51.504;3.894;2022-10-16T04:20:55;36.47;34.52;46.51;;
66399;Laerm;54877;51.504;3.894;2022-10-16T04:23:21;37.01;34.98;45.75;;
66399;Laerm;54877;51.504;3.894;2022-10-16T04:25:47;53.45;34.81;74.28;;
66399;Laerm;54877;51.504;3.894;2022-10-16T04:28:13;36.38;34.84;38.74;;
66399;Laerm;54877;51.504;3.894;2022-10-16T04:30:38;36.26;34.98;41.65;;
66399;Laerm;54877;51.504;3.894;2022-10-16T04:33:03;36.64;34.84;40.66;;
66399;Laerm;54877;51.504;3.894;2022-10-16T04:35:29;36.28;34.91;38.65;;
66399;Laerm;54877;51.504;3.894;2022-10-16T04:37:56;36.99;35.28;44.21;;
66399;Laerm;54877;51.504;3.894;2022-10-16T04:40:21;37.03;35.05;41.59;;
66399;Laerm;54877;51.504;3.894;2022-10-16T04:42:47;37.26;35.29;51.29;;
66399;Laerm;54877;51.504;3.894;2022-10-16T04:45:12;36.77;35.04;40.54;;
66399;Laerm;54877;51.504;3.894;2022-10-16T04:47:37;38.20;34.94;53.62;;
66399;Laerm;54877;51.504;3.894;2022-10-16T04:50:02;36.45;34.97;41.71;;
66399;Laerm;54877;51.504;3.894;2022-10-16T04:52:28;36.64;34.96;44.22;;
66399;Laerm;54877;51.504;3.894;2022-10-16T04:54:53;37.73;35.10;51.23;;
66399;Laerm;54877;51.504;3.894;2022-10-16T04:57:19;36.28;34.64;41.85;;
66399;Laerm;54877;51.504;3.894;2022-10-16T04:59:44;42.26;34.99;57.57;;
66399;Laerm;54877;51.504;3.894;2022-10-16T05:02:09;38.46;34.94;50.59;;
66399;Laerm;54877;51.504;3.894;2022-10-16T05:04:34;36.53;34.85;39.45;;
66399;Laerm;54877;51.504;3.894;2022-10-16T05:07:00;36.54;34.73;40.32;;
66399;Laerm;54877;51.504;3.894;2022-10-16T05:09:25;36.44;34.89;41.37;;
66399;Laerm;54877;51.504;3.894;2022-10-16T05:11:50;36.62;34.95;41.91;;
66399;Laerm;54877;51.504;3.894;2022-10-16T05:14:15;37.37;35.16;44.42;;
66399;Laerm;54877;51.504;3.894;2022-10-16T05:16:40;36.62;35.06;39.85;;
66399;Laerm;54877;51.504;3.894;2022-10-16T05:19:06;38.45;34.96;60.46;;
66399;Laerm;54877;51.504;3.894;2022-10-16T05:21:31;39.15;35.40;53.76;;
66399;Laerm;54877;51.504;3.894;2022-10-16T05:23:56;37.48;34.89;49.76;;
66399;Laerm;54877;51.504;3.894;2022-10-16T05:26:21;36.52;35.04;42.73;;
66399;Laerm;54877;51.504;3.894;2022-10-16T05:28:47;36.98;34.89;45.17;;
66399;Laerm;54877;51.504;3.894;2022-10-16T05:31:12;36.90;34.88;41.88;;
66399;Laerm;54877;51.504;3.894;2022-10-16T05:33:37;36.81;34.73;47.60;;
66399;Laerm;54877;51.504;3.894;2022-10-16T05:36:03;36.41;34.63;44.93;;
66399;Laerm;54877;51.504;3.894;2022-10-16T05:38:28;36.94;35.09;43.44;;
66399;Laerm;54877;51.504;3.894;2022-10-16T05:40:53;36.93;34.58;45.34;;
66399;Laerm;54877;51.504;3.894;2022-10-16T05:43:19;38.01;35.16;47.14;;
66399;Laerm;54877;51.504;3.894;2022-10-16T05:45:44;38.03;35.12;61.94;;
66399;Laerm;54877;51.504;3.894;2022-10-16T05:48:09;37.52;35.18;51.05;;
66399;Laerm;54877;51.504;3.894;2022-10-16T05:50:34;40.99;35.12;49.59;;
66399;Laerm;54877;51.504;3.894;2022-10-16T05:53:00;39.77;35.40;59.15;;
66399;Laerm;54877;51.504;3.894;2022-10-16T05:55:25;36.96;35.10;44.04;;
66399;Laerm;54877;51.504;3.894;2022-10-16T05:57:50;36.99;34.60;47.84;;
66399;Laerm;54877;51.504;3.894;2022-10-16T06:00:15;38.34;35.27;49.51;;
66399;Laerm;54877;51.504;3.894;2022-10-16T06:02:40;36.66;34.86;47.13;;
66399;Laerm;54877;51.504;3.894;2022-10-16T06:05:05;37.77;34.99;64.11;;
66399;Laerm;54877;51.504;3.894;2022-10-16T06:07:33;36.79;34.90;44.01;;
66399;Laerm;54877;51.504;3.894;2022-10-16T06:09:59;37.40;34.91;50.40;;
66399;Laerm;54877;51.504;3.894;2022-10-16T06:12:24;40.93;35.23;63.51;;
66399;Laerm;54877;51.504;3.894;2022-10-16T06:14:49;42.04;35.93;54.38;;
66399;Laerm;54877;51.504;3.894;2022-10-16T06:17:14;36.74;34.92;43.41;;
66399;Laerm;54877;51.504;3.894;2022-10-16T06:19:40;37.28;35.08;45.36;;
66399;Laerm;54877;51.504;3.894;2022-10-16T06:22:05;37.19;35.18;41.98;;
66399;Laerm;54877;51.504;3.894;2022-10-16T06:24:31;37.16;35.18;45.40;;
66399;Laerm;54877;51.504;3.894;2022-10-16T06:26:56;37.41;35.25;61.58;;
66399;Laerm;54877;51.504;3.894;2022-10-16T06:29:21;36.64;34.54;40.00;;
66399;Laerm;54877;51.504;3.894;2022-10-16T06:31:46;37.33;35.43;49.25;;
66399;Laerm;54877;51.504;3.894;2022-10-16T06:34:12;37.32;35.48;44.20;;
66399;Laerm;54877;51.504;3.894;2022-10-16T06:36:37;37.58;35.17;56.01;;
66399;Laerm;54877;51.504;3.894;2022-10-16T06:39:03;36.89;34.97;44.72;;
66399;Laerm;54877;51.504;3.894;2022-10-16T06:41:28;36.91;35.24;42.48;;
66399;Laerm;54877;51.504;3.894;2022-10-16T06:43:53;38.81;35.26;48.30;;
66399;Laerm;54877;51.504;3.894;2022-10-16T06:46:20;37.31;35.03;40.42;;
66399;Laerm;54877;51.504;3.894;2022-10-16T06:48:45;54.84;35.81;75.41;;
66399;Laerm;54877;51.504;3.894;2022-10-16T06:51:12;54.20;35.17;74.65;;
66399;Laerm;54877;51.504;3.894;2022-10-16T06:53:38;38.02;35.07;50.82;;
66399;Laerm;54877;51.504;3.894;2022-10-16T06:56:14;38.01;35.45;54.93;;
66399;Laerm;54877;51.504;3.894;2022-10-16T06:58:40;37.19;35.09;55.98;;
66399;Laerm;54877;51.504;3.894;2022-10-16T07:01:05;39.09;35.73;52.22;;
66399;Laerm;54877;51.504;3.894;2022-10-16T07:03:30;39.92;35.63;57.02;;
66399;Laerm;54877;51.504;3.894;2022-10-16T07:05:56;37.35;35.42;50.15;;
66399;Laerm;54877;51.504;3.894;2022-10-16T07:08:21;38.04;35.37;53.89;;
66399;Laerm;54877;51.504;3.894;2022-10-16T07:10:46;37.89;35.67;44.99;;
66399;Laerm;54877;51.504;3.894;2022-10-16T07:13:11;38.94;35.74;59.14;;
66399;Laerm;54877;51.504;3.894;2022-10-16T07:15:38;51.99;35.75;70.44;;
66399;Laerm;54877;51.504;3.894;2022-10-16T07:18:04;38.50;35.78;46.37;;
66399;Laerm;54877;51.504;3.894;2022-10-16T07:20:29;37.73;35.60;44.23;;
66399;Laerm;54877;51.504;3.894;2022-10-16T07:22:54;46.94;35.31;63.63;;
66399;Laerm;54877;51.504;3.894;2022-10-16T07:25:19;48.19;35.51;66.67;;
66399;Laerm;54877;51.504;3.894;2022-10-16T07:27:44;42.46;34.87;55.33;;
66399;Laerm;54877;51.504;3.894;2022-10-16T07:30:10;49.85;35.59;68.36;;
66399;Laerm;54877;51.504;3.894;2022-10-16T07:32:35;40.78;35.75;55.60;;
66399;Laerm;54877;51.504;3.894;2022-10-16T07:35:00;38.54;35.39;50.05;;
66399;Laerm;54877;51.504;3.894;2022-10-16T07:37:25;54.74;35.84;72.94;;
66399;Laerm;54877;51.504;3.894;2022-10-16T07:39:50;59.26;35.50;79.77;;
66399;Laerm;54877;51.504;3.894;2022-10-16T07:42:16;41.17;35.96;59.80;;
66399;Laerm;54877;51.504;3.894;2022-10-16T07:44:41;55.31;35.41;73.22;;
66399;Laerm;54877;51.504;3.894;2022-10-16T07:47:07;58.50;43.56;70.48;;
66399;Laerm;54877;51.504;3.894;2022-10-16T07:49:32;56.73;41.64;70.79;;
66399;Laerm;54877;51.504;3.894;2022-10-16T07:51:57;52.80;36.35;67.12;;
66399;Laerm;54877;51.504;3.894;2022-10-16T07:54:22;55.73;35.67;74.51;;
66399;Laerm;54877;51.504;3.894;2022-10-16T07:56:47;37.68;35.73;47.16;;
66399;Laerm;54877;51.504;3.894;2022-10-16T07:59:13;39.48;35.25;53.09;;
66399;Laerm;54877;51.504;3.894;2022-10-16T08:01:38;40.81;35.28;60.73;;
66399;Laerm;54877;51.504;3.894;2022-10-16T08:04:03;37.27;35.29;45.29;;
66399;Laerm;54877;51.504;3.894;2022-10-16T08:06:28;39.72;35.88;54.79;;
66399;Laerm;54877;51.504;3.894;2022-10-16T08:08:54;48.87;35.58;65.49;;
66399;Laerm;54877;51.504;3.894;2022-10-16T08:11:20;37.51;34.98;49.66;;
66399;Laerm;54877;51.504;3.894;2022-10-16T08:13:45;44.91;35.42;71.45;;
66399;Laerm;54877;51.504;3.894;2022-10-16T08:16:10;55.09;35.53;71.22;;
66399;Laerm;54877;51.504;3.894;2022-10-16T08:18:36;38.92;35.20;61.90;;
66399;Laerm;54877;51.504;3.894;2022-10-16T08:21:02;38.07;35.36;53.01;;
66399;Laerm;54877;51.504;3.894;2022-10-16T08:23:28;41.08;35.18;55.84;;
66399;Laerm;54877;51.504;3.894;2022-10-16T08:25:54;37.26;34.74;48.16;;
66399;Laerm;54877;51.504;3.894;2022-10-16T08:28:19;37.46;35.34;44.76;;
66399;Laerm;54877;51.504;3.894;2022-10-16T08:30:45;43.17;35.04;62.87;;
66399;Laerm;54877;51.504;3.894;2022-10-16T08:33:10;53.18;35.29;72.42;;
66399;Laerm;54877;51.504;3.894;2022-10-16T08:35:35;41.24;35.18;57.24;;
66399;Laerm;54877;51.504;3.894;2022-10-16T08:38:02;39.30;35.14;53.84;;
66399;Laerm;54877;51.504;3.894;2022-10-16T08:40:28;39.29;35.37;55.16;;
66399;Laerm;54877;51.504;3.894;2022-10-16T08:43:20;40.74;35.09;54.35;;
66399;Laerm;54877;51.504;3.894;2022-10-16T08:48:17;43.04;35.15;73.01;;
66399;Laerm;54877;51.504;3.894;2022-10-16T08:50:43;50.16;35.17;70.92;;
66399;Laerm;54877;51.504;3.894;2022-10-16T08:53:10;38.96;34.84;53.77;;
66399;Laerm;54877;51.504;3.894;2022-10-16T08:55:43;38.30;34.88;53.06;;
66399;Laerm;54877;51.504;3.894;2022-10-16T08:58:10;37.85;35.12;51.65;;
66399;Laerm;54877;51.504;3.894;2022-10-16T09:00:36;51.31;34.75;68.99;;
66399;Laerm;54877;51.504;3.894;2022-10-16T09:05:52;45.10;34.99;63.87;;
66399;Laerm;54877;51.504;3.894;2022-10-16T09:08:41;48.66;35.18;66.99;;
66399;Laerm;54877;51.504;3.894;2022-10-16T09:11:14;43.20;35.15;66.24;;
66399;Laerm;54877;51.504;3.894;2022-10-16T09:16:17;40.04;34.84;59.46;;
66399;Laerm;54877;51.504;3.894;2022-10-16T09:23:48;42.28;34.27;57.34;;
66399;Laerm;54877;51.504;3.894;2022-10-16T09:26:14;55.65;34.00;74.82;;
66399;Laerm;54877;51.504;3.894;2022-10-16T09:28:41;56.13;34.47;76.19;;
66399;Laerm;54877;51.504;3.894;2022-10-16T09:31:09;39.51;33.00;56.01;;
66399;Laerm;54877;51.504;3.894;2022-10-16T09:33:37;51.21;33.97;69.86;;
66399;Laerm;54877;51.504;3.894;2022-10-16T09:36:04;52.82;33.76;68.24;;
66399;Laerm;54877;51.504;3.894;2022-10-16T09:38:31;55.33;33.36;74.84;;
66399;Laerm;54877;51.504;3.894;2022-10-16T09:40:58;43.89;33.99;76.83;;
66399;Laerm;54877;51.504;3.894;2022-10-16T09:43:25;38.99;33.63;57.74;;
66399;Laerm;54877;51.504;3.894;2022-10-16T09:45:55;54.05;33.44;72.94;;
66399;Laerm;54877;51.504;3.894;2022-10-16T09:48:20;39.86;33.87;51.37;;
66399;Laerm;54877;51.504;3.894;2022-10-16T09:50:55;44.25;33.22;65.83;;
66399;Laerm;54877;51.504;3.894;2022-10-16T09:53:20;36.39;32.70;46.16;;
66399;Laerm;54877;51.504;3.894;2022-10-16T09:55:51;38.53;33.38;55.88;;
66399;Laerm;54877;51.504;3.894;2022-10-16T09:58:16;39.59;33.10;49.20;;
66399;Laerm;54877;51.504;3.894;2022-10-16T10:00:42;39.09;31.81;53.87;;
66399;Laerm;54877;51.504;3.894;2022-10-16T10:03:16;42.86;32.71;64.85;;
66399;Laerm;54877;51.504;3.894;2022-10-16T10:05:49;53.72;31.98;70.11;;
66399;Laerm;54877;51.504;3.894;2022-10-16T10:08:16;54.79;31.45;74.04;;
66399;Laerm;54877;51.504;3.894;2022-10-16T10:10:43;50.85;32.19;69.11;;
66399;Laerm;54877;51.504;3.894;2022-10-16T10:13:18;37.45;31.59;51.38;;
66399;Laerm;54877;51.504;3.894;2022-10-16T10:15:45;57.40;31.25;75.64;;
66399;Laerm;54877;51.504;3.894;2022-10-16T10:18:20;35.80;31.24;53.87;;
66399;Laerm;54877;51.504;3.894;2022-10-16T10:20:58;38.82;30.82;55.53;;
66399;Laerm;54877;51.504;3.894;2022-10-16T10:23:26;39.16;31.16;59.20;;
66399;Laerm;54877;51.504;3.894;2022-10-16T10:31:26;50.40;30.83;68.41;;
66399;Laerm;54877;51.504;3.894;2022-10-16T10:36:38;42.32;31.05;62.14;;
66399;Laerm;54877;51.504;3.894;2022-10-16T10:39:08;54.50;31.15;74.34;;
66399;Laerm;54877;51.504;3.894;2022-10-16T10:44:31;46.05;32.15;64.30;;
66399;Laerm;54877;51.504;3.894;2022-10-16T10:55:37;58.87;32.61;75.38;;
66399;Laerm;54877;51.504;3.894;2022-10-16T10:57:40;44.86;30.52;66.07;;
66399;Laerm;54877;51.504;3.894;2022-10-16T11:05:19;54.10;31.66;72.94;;
66399;Laerm;54877;51.504;3.894;2022-10-16T11:07:49;52.81;30.46;71.79;;
66399;Laerm;54877;51.504;3.894;2022-10-16T11:10:17;40.68;31.90;65.90;;
66399;Laerm;54877;51.504;3.894;2022-10-16T11:12:45;45.70;31.21;66.98;;
66399;Laerm;54877;51.504;3.894;2022-10-16T11:15:24;51.60;31.02;69.99;;
66399;Laerm;54877;51.504;3.894;2022-10-16T11:17:55;52.38;30.42;72.68;;
66399;Laerm;54877;51.504;3.894;2022-10-16T11:20:24;53.60;31.00;72.83;;
66399;Laerm;54877;51.504;3.894;2022-10-16T11:22:53;51.25;29.82;70.17;;
66399;Laerm;54877;51.504;3.894;2022-10-16T11:25:24;36.03;30.42;56.58;;
66399;Laerm;54877;51.504;3.894;2022-10-16T11:27:54;55.99;29.88;72.99;;
66399;Laerm;54877;51.504;3.894;2022-10-16T11:30:23;52.20;31.26;72.60;;
66399;Laerm;54877;51.504;3.894;2022-10-16T11:32:52;51.60;31.31;68.50;;
66399;Laerm;54877;51.504;3.894;2022-10-16T11:35:23;41.05;31.90;60.66;;
66399;Laerm;54877;51.504;3.894;2022-10-16T11:37:50;53.42;30.54;71.49;;
66399;Laerm;54877;51.504;3.894;2022-10-16T11:40:29;55.41;30.59;71.43;;
66399;Laerm;54877;51.504;3.894;2022-10-16T11:43:11;52.59;31.27;71.26;;
66399;Laerm;54877;51.504;3.894;2022-10-16T11:45:42;55.12;31.12;72.38;;
66399;Laerm;54877;51.504;3.894;2022-10-16T11:48:27;49.20;31.98;70.23;;
66399;Laerm;54877;51.504;3.894;2022-10-16T11:53:42;43.69;31.19;61.02;;
66399;Laerm;54877;51.504;3.894;2022-10-16T11:56:16;38.76;30.88;54.88;;
66399;Laerm;54877;51.504;3.894;2022-10-16T12:01:15;56.44;31.56;71.72;;
66399;Laerm;54877;51.504;3.894;2022-10-16T12:06:29;46.06;30.65;69.49;;
66399;Laerm;54877;51.504;3.894;2022-10-16T12:08:57;41.55;30.42;64.92;;
66399;Laerm;54877;51.504;3.894;2022-10-16T12:13:48;58.72;29.40;76.42;;
66399;Laerm;54877;51.504;3.894;2022-10-16T12:18:43;55.83;28.93;76.54;;
66399;Laerm;54877;51.504;3.894;2022-10-16T12:21:09;38.14;29.82;61.52;;
66399;Laerm;54877;51.504;3.894;2022-10-16T12:23:47;45.36;29.02;68.56;;
66399;Laerm;54877;51.504;3.894;2022-10-16T12:26:13;52.88;30.01;69.59;;
66399;Laerm;54877;51.504;3.894;2022-10-16T12:28:38;45.70;30.20;71.74;;
66399;Laerm;54877;51.504;3.894;2022-10-16T12:31:06;36.34;29.34;47.57;;
66399;Laerm;54877;51.504;3.894;2022-10-16T12:33:34;40.75;30.02;60.50;;
66399;Laerm;54877;51.504;3.894;2022-10-16T12:36:01;52.65;30.03;70.79;;
66399;Laerm;54877;51.504;3.894;2022-10-16T12:38:28;56.05;29.10;76.45;;
66399;Laerm;54877;51.504;3.894;2022-10-16T12:41:08;59.90;31.35;77.35;;
66399;Laerm;54877;51.504;3.894;2022-10-16T12:43:41;55.24;29.44;73.72;;
66399;Laerm;54877;51.504;3.894;2022-10-16T12:48:34;53.43;28.32;74.24;;
66399;Laerm;54877;51.504;3.894;2022-10-16T12:51:09;53.71;29.29;73.66;;
66399;Laerm;54877;51.504;3.894;2022-10-16T12:53:35;59.63;29.49;77.91;;
66399;Laerm;54877;51.504;3.894;2022-10-16T12:58:34;52.39;29.98;70.84;;
66399;Laerm;54877;51.504;3.894;2022-10-16T13:04:08;37.23;30.00;55.36;;
66399;Laerm;54877;51.504;3.894;2022-10-16T13:06:40;42.47;30.64;65.15;;
66399;Laerm;54877;51.504;3.894;2022-10-16T13:25:22;44.60;28.95;65.02;;
66399;Laerm;54877;51.504;3.894;2022-10-16T13:28:05;40.64;29.90;61.32;;
66399;Laerm;54877;51.504;3.894;2022-10-16T13:30:40;41.41;30.27;64.40;;
66399;Laerm;54877;51.504;3.894;2022-10-16T13:35:35;57.48;31.75;75.99;;
66399;Laerm;54877;51.504;3.894;2022-10-16T13:38:11;59.17;30.96;76.33;;
66399;Laerm;54877;51.504;3.894;2022-10-16T13:40:47;37.76;29.21;61.17;;
66399;Laerm;54877;51.504;3.894;2022-10-16T13:43:12;37.35;29.31;62.21;;
66399;Laerm;54877;51.504;3.894;2022-10-16T13:45:38;43.87;28.98;70.65;;
66399;Laerm;54877;51.504;3.894;2022-10-16T13:48:04;43.82;29.30;60.62;;
66399;Laerm;54877;51.504;3.894;2022-10-16T13:50:30;42.43;29.14;69.72;;
66399;Laerm;54877;51.504;3.894;2022-10-16T13:53:09;56.48;30.77;76.63;;
66399;Laerm;54877;51.504;3.894;2022-10-16T13:55:38;44.86;30.15;68.05;;
66399;Laerm;54877;51.504;3.894;2022-10-16T13:58:13;40.66;29.90;56.47;;
66399;Laerm;54877;51.504;3.894;2022-10-16T14:00:39;52.14;30.25;69.76;;
66399;Laerm;54877;51.504;3.894;2022-10-16T14:03:05;39.56;29.46;55.79;;
66399;Laerm;54877;51.504;3.894;2022-10-16T14:05:31;51.38;29.07;70.57;;
66399;Laerm;54877;51.504;3.894;2022-10-16T14:07:57;53.43;29.88;71.88;;
66399;Laerm;54877;51.504;3.894;2022-10-16T14:10:29;53.56;29.89;70.22;;
66399;Laerm;54877;51.504;3.894;2022-10-16T14:12:59;52.66;29.88;72.51;;
66399;Laerm;54877;51.504;3.894;2022-10-16T14:15:25;40.03;29.55;68.45;;
66399;Laerm;54877;51.504;3.894;2022-10-16T14:17:51;41.69;30.22;65.20;;
66399;Laerm;54877;51.504;3.894;2022-10-16T14:20:17;53.20;30.71;72.86;;
66399;Laerm;54877;51.504;3.894;2022-10-16T14:22:43;48.85;31.28;66.76;;
66399;Laerm;54877;51.504;3.894;2022-10-16T14:30:26;52.75;30.78;71.60;;
66399;Laerm;54877;51.504;3.894;2022-10-16T14:35:23;37.48;28.83;57.08;;
66399;Laerm;54877;51.504;3.894;2022-10-16T14:37:52;38.24;29.45;57.29;;
66399;Laerm;54877;51.504;3.894;2022-10-16T14:40:18;41.09;29.69;68.90;;
66399;Laerm;54877;51.504;3.894;2022-10-16T14:42:43;43.54;29.33;59.79;;
66399;Laerm;54877;51.504;3.894;2022-10-16T14:45:09;56.89;29.04;76.56;;
66399;Laerm;54877;51.504;3.894;2022-10-16T14:47:35;40.03;29.52;66.95;;
66399;Laerm;54877;51.504;3.894;2022-10-16T14:50:02;55.20;29.11;73.44;;
66399;Laerm;54877;51.504;3.894;2022-10-16T14:52:27;49.51;31.52;63.98;;
66399;Laerm;54877;51.504;3.894;2022-10-16T14:54:52;44.48;31.98;74.30;;
66399;Laerm;54877;51.504;3.894;2022-10-16T14:57:20;41.44;29.31;58.42;;
66399;Laerm;54877;51.504;3.894;2022-10-16T14:59:47;35.61;29.61;45.26;;
66399;Laerm;54877;51.504;3.894;2022-10-16T15:04:41;57.48;30.77;76.38;;
66399;Laerm;54877;51.504;3.894;2022-10-16T15:07:07;52.96;30.11;72.68;;
66399;Laerm;54877;51.504;3.894;2022-10-16T15:09:32;59.46;30.37;78.04;;
66399;Laerm;54877;51.504;3.894;2022-10-16T15:11:57;57.38;30.73;77.46;;
66399;Laerm;54877;51.504;3.894;2022-10-16T15:14:22;55.89;30.45;75.14;;
66399;Laerm;54877;51.504;3.894;2022-10-16T15:16:48;37.85;29.67;60.43;;
66399;Laerm;54877;51.504;3.894;2022-10-16T15:19:13;38.75;29.62;61.02;;
66399;Laerm;54877;51.504;3.894;2022-10-16T15:21:38;35.96;31.48;50.01;;
66399;Laerm;54877;51.504;3.894;2022-10-16T15:24:05;53.41;32.02;72.98;;